Time;durP1;ratioP1;P1;durP2;ratioP2;P2;SDS_P1;SDS_P2;PMS_P1;PMS_P2;Temp;Humidity;BMP_temperature;BMP_pressure;BME280_temperature;BME280_humidity;BME280_pressure;Samples;Min_cycle;Max_cycle;Signal;HPM_P1;HPM_P2
2023/08/04 00:06:59;;;;;;;;;;;;;;;17.23;95.01;100839.66;21087924;27;19928;-60
2023/08/04 00:17:21;;;;;;;;;;;;;;;17.16;94.90;100838.31;21112637;27;19931;-61
2023/08/04 00:27:42;;;;;;;;;;;;;;;17.13;96.00;100838.47;21098420;27;19924;-60
2023/08/04 00:38:04;;;;;;;;;;;;;;;16.96;96.56;100834.19;21090378;27;20204;-60
2023/08/04 00:48:25;;;;;;;;;;;;;;;16.81;98.34;100833.28;21073367;27;19939;-60
2023/08/04 00:58:47;;;;;;;;;;;;;;;16.73;98.96;100832.88;21081864;28;19927;-60
2023/08/04 01:09:21;;;;;;;;;;;;;;;16.73;99.63;100852.94;21090145;28;19932;-61
2023/08/04 01:19:43;;;;;;;;;;;;;;;16.74;99.99;100872.91;21085801;28;19977;-60
2023/08/04 01:30:06;;;;;;;;;;;;;;;16.75;99.24;100875.47;21081563;27;19928;-60
2023/08/04 01:40:27;;;;;;;;;;;;;;;16.76;99.25;100887.59;21102754;27;20035;-60
2023/08/04 01:50:48;;;;;;;;;;;;;;;16.69;98.96;100880.16;21075354;28;19935;-60
2023/08/04 02:01:10;;;;;;;;;;;;;;;16.63;99.95;100883.94;21118547;27;19928;-61
2023/08/04 02:11:31;;;;;;;;;;;;;;;16.64;100.00;100890.88;21098440;27;20586;-61
2023/08/04 02:21:53;;;;;;;;;;;;;;;16.62;100.00;100899.72;21111888;27;19951;-61
2023/08/04 02:32:16;;;;;;;;;;;;;;;16.62;100.00;100921.47;21103634;27;20255;-61
2023/08/04 02:42:38;;;;;;;;;;;;;;;16.69;100.00;100933.28;21115261;27;19941;-62
2023/08/04 02:52:59;;;;;;;;;;;;;;;16.75;100.00;100932.97;21102165;27;19928;-60
2023/08/04 03:03:21;;;;;;;;;;;;;;;16.76;100.00;100950.31;21111833;27;19935;-61
2023/08/04 03:13:42;;;;;;;;;;;;;;;16.77;100.00;100956.41;21094174;28;19924;-60
2023/08/04 03:24:04;;;;;;;;;;;;;;;16.79;100.00;100963.22;21088268;27;19927;-60
2023/08/04 03:34:29;;;;;;;;;;;;;;;16.77;100.00;100972.09;21091014;27;20027;-60
2023/08/04 03:44:50;;;;;;;;;;;;;;;16.80;100.00;100985.81;21109288;27;19946;-60
2023/08/04 03:55:12;;;;;;;;;;;;;;;16.77;100.00;100996.47;21095348;27;19924;-60
2023/08/04 04:05:33;;;;;;;;;;;;;;;16.77;100.00;100996.47;21098358;27;19972;-60
2023/08/04 04:15:55;;;;;;;;;;;;;;;16.76;100.00;101013.03;21087305;27;20011;-60
2023/08/04 04:26:16;;;;;;;;;;;;;;;16.78;100.00;101021.66;21092135;27;20307;-61
2023/08/04 04:36:38;;;;;;;;;;;;;;;16.75;100.00;101037.50;21100301;27;19928;-60
2023/08/04 04:46:59;;;;;;;;;;;;;;;16.75;100.00;101044.50;21095211;27;19932;-61
2023/08/04 04:57:21;;;;;;;;;;;;;;;16.71;100.00;101045.56;21092601;27;20380;-61
2023/08/04 05:07:43;;;;;;;;;;;;;;;16.68;99.50;101046.56;21098458;27;19939;-60
2023/08/04 05:18:04;;;;;;;;;;;;;;;16.71;99.24;101054.28;21100610;27;19924;-60
2023/08/04 05:28:30;;;;;;;;;;;;;;;16.75;99.39;101061.03;21101950;28;19934;-60
2023/08/04 05:38:52;;;;;;;;;;;;;;;16.84;98.99;101076.25;21087801;27;19924;-61
2023/08/04 05:49:13;;;;;;;;;;;;;;;16.86;98.75;101092.69;21108589;27;19933;-60
2023/08/04 05:59:35;;;;;;;;;;;;;;;16.93;97.98;101099.28;21080070;28;19996;-61
2023/08/04 06:09:56;;;;;;;;;;;;;;;16.97;98.30;101119.13;21102834;28;20464;-61
2023/08/04 06:20:18;;;;;;;;;;;;;;;17.08;98.15;101123.78;21091329;28;20351;-61
2023/08/04 06:30:39;;;;;;;;;;;;;;;17.22;98.24;101134.38;21084588;28;20567;-61
2023/08/04 06:41:01;;;;;;;;;;;;;;;17.27;97.93;101149.84;21086087;27;19935;-60
2023/08/04 06:51:22;;;;;;;;;;;;;;;17.32;97.76;101153.06;21104871;27;19938;-61
2023/08/04 07:01:44;;;;;;;;;;;;;;;17.36;97.80;101151.97;21100261;27;19930;-61
2023/08/04 07:12:06;;;;;;;;;;;;;;;17.48;97.65;101170.50;21099611;27;19932;-60
2023/08/04 07:22:28;;;;;;;;;;;;;;;17.49;98.14;101181.84;21102170;27;19928;-60
2023/08/04 07:32:49;;;;;;;;;;;;;;;17.53;97.38;101194.66;21104526;27;19928;-60
2023/08/04 07:43:12;;;;;;;;;;;;;;;17.42;99.80;101196.09;21095038;27;20077;-61
2023/08/04 07:53:33;;;;;;;;;;;;;;;17.30;100.00;101197.63;21098560;27;20023;-60
2023/08/04 08:03:55;;;;;;;;;;;;;;;17.40;100.00;101203.19;21094153;27;19931;-61
2023/08/04 08:14:16;;;;;;;;;;;;;;;17.49;99.17;101210.63;21081229;27;20343;-62
2023/08/04 08:24:38;;;;;;;;;;;;;;;17.56;96.76;101214.59;21096620;27;19931;-61
2023/08/04 08:34:59;;;;;;;;;;;;;;;17.65;95.63;101229.81;21080076;27;19928;-61
2023/08/04 08:45:24;;;;;;;;;;;;;;;18.10;94.82;101237.81;21072090;28;19938;-60
2023/08/04 08:55:47;;;;;;;;;;;;;;;18.20;92.64;101239.03;21090222;27;19928;-61
2023/08/04 09:06:09;;;;;;;;;;;;;;;18.45;91.53;101233.28;21095995;27;19939;-61
2023/08/04 09:16:33;;;;;;;;;;;;;;;18.87;91.08;101242.19;21095993;27;19924;-61
2023/08/04 09:26:55;;;;;;;;;;;;;;;19.26;87.33;101238.19;21081034;28;19924;-61
2023/08/04 09:37:16;;;;;;;;;;;;;;;19.50;87.72;101234.13;21085242;27;20279;-61
2023/08/04 09:47:38;;;;;;;;;;;;;;;19.82;83.57;101243.50;21106723;27;19928;-61
2023/08/04 09:58:00;;;;;;;;;;;;;;;19.52;85.54;101251.44;21088470;28;19939;-61
2023/08/04 10:08:21;;;;;;;;;;;;;;;19.62;84.87;101268.34;21088102;28;20371;-61
2023/08/04 10:18:51;;;;;;;;;;;;;;;20.02;82.75;101256.25;21083041;27;20031;-61
2023/08/04 10:29:12;;;;;;;;;;;;;;;19.86;84.08;101266.03;21105473;27;19938;-62
2023/08/04 10:39:44;;;;;;;;;;;;;;;19.62;84.38;101262.25;21100940;27;19932;-61
2023/08/04 10:50:06;;;;;;;;;;;;;;;19.74;84.06;101270.22;21102482;27;19928;-62
2023/08/04 11:00:27;;;;;;;;;;;;;;;19.66;80.86;101285.63;21098492;27;19939;-62
2023/08/04 11:10:56;;;;;;;;;;;;;;;19.33;80.41;101297.28;21109356;27;20319;-62
2023/08/04 11:21:18;;;;;;;;;;;;;;;19.18;81.10;101306.00;21109596;27;19933;-62
2023/08/04 11:31:41;;;;;;;;;;;;;;;19.36;83.20;101307.59;21112306;27;20336;-62
2023/08/04 11:42:02;;;;;;;;;;;;;;;19.59;83.62;101314.97;21102363;27;19923;-62
2023/08/04 11:52:24;;;;;;;;;;;;;;;19.71;81.43;101314.22;21101726;27;19985;-62
2023/08/04 12:02:55;;;;;;;;;;;;;;;19.76;79.87;101309.56;21094347;28;19965;-62
2023/08/04 12:13:33;;;;;;;;;;;;;;;20.15;78.15;101317.63;21111216;27;19931;-62
2023/08/04 12:23:55;;;;;;;;;;;;;;;20.42;79.40;101329.06;21102951;27;20022;-62
2023/08/04 12:34:17;;;;;;;;;;;;;;;20.44;81.17;101331.59;21089971;27;19934;-62
2023/08/04 12:44:42;;;;;;;;;;;;;;;20.57;78.87;101338.63;21095307;27;20280;-65
2023/08/04 12:55:04;;;;;;;;;;;;;;;20.60;79.13;101324.47;21105426;27;19924;-63
2023/08/04 13:05:26;;;;;;;;;;;;;;;20.52;79.58;101345.97;21096091;27;19934;-63
2023/08/04 13:15:47;;;;;;;;;;;;;;;20.71;79.23;101345.66;21104071;27;19928;-63
2023/08/04 13:26:09;;;;;;;;;;;;;;;20.97;80.09;101363.25;21092463;28;20058;-61
2023/08/04 13:36:31;;;;;;;;;;;;;;;20.72;81.21;101363.13;21093755;27;20383;-61
2023/08/04 13:46:52;;;;;;;;;;;;;;;20.33;85.09;101376.97;21078235;27;20018;-61
2023/08/04 13:57:16;;;;;;;;;;;;;;;19.95;87.77;101402.06;21094472;28;20360;-61
2023/08/04 14:08:00;;;;;;;;;;;;;;;19.06;95.24;101408.09;21118423;28;20387;-61
2023/08/04 14:18:22;;;;;;;;;;;;;;;19.12;98.52;101403.47;21094116;27;20311;-61
2023/08/04 14:28:44;;;;;;;;;;;;;;;19.27;98.81;101402.56;21089812;28;20366;-62
2023/08/04 14:39:05;;;;;;;;;;;;;;;19.62;94.92;101396.19;21086806;28;19928;-62
2023/08/04 14:49:27;;;;;;;;;;;;;;;19.72;95.75;101400.81;21090379;28;19946;-62
2023/08/04 14:59:48;;;;;;;;;;;;;;;19.80;92.07;101397.72;21092487;28;20396;-62
2023/08/04 15:10:10;;;;;;;;;;;;;;;19.70;89.11;101412.34;21101412;27;20459;-62
2023/08/04 15:20:31;;;;;;;;;;;;;;;19.63;86.19;101416.28;21113903;27;19923;-62
2023/08/04 15:30:53;;;;;;;;;;;;;;;19.75;87.21;101428.69;21094487;27;20038;-62
2023/08/04 15:41:15;;;;;;;;;;;;;;;19.81;89.55;101423.06;21107896;27;19924;-61
2023/08/04 15:51:37;;;;;;;;;;;;;;;19.55;90.20;101429.00;21084856;27;19938;-61
2023/08/04 16:01:58;;;;;;;;;;;;;;;19.84;85.77;101438.66;21100632;27;19923;-61
2023/08/04 16:12:20;;;;;;;;;;;;;;;19.92;84.35;101439.06;21077513;27;19924;-62
2023/08/04 16:22:41;;;;;;;;;;;;;;;20.10;83.16;101463.38;21091512;27;19928;-62
2023/08/04 16:33:03;;;;;;;;;;;;;;;19.82;80.01;101469.41;21098804;27;20287;-62
2023/08/04 16:43:25;;;;;;;;;;;;;;;20.28;82.66;101470.22;21099104;27;19963;-61
2023/08/04 16:53:46;;;;;;;;;;;;;;;20.39;82.56;101473.91;21082421;27;20014;-61
2023/08/04 17:04:08;;;;;;;;;;;;;;;20.50;81.50;101499.53;21096226;27;19924;-61
2023/08/04 17:14:30;;;;;;;;;;;;;;;19.92;79.88;101502.13;21089808;27;19928;-61
2023/08/04 17:24:51;;;;;;;;;;;;;;;19.70;81.80;101517.41;21079803;27;19938;-61
2023/08/04 17:35:12;;;;;;;;;;;;;;;19.46;80.96;101518.78;21082786;27;19928;-61
2023/08/04 17:45:34;;;;;;;;;;;;;;;19.52;82.66;101536.84;21077979;27;20017;-60
2023/08/04 17:55:56;;;;;;;;;;;;;;;19.47;82.77;101542.31;21103103;27;19978;-61
2023/08/04 18:06:17;;;;;;;;;;;;;;;19.37;80.84;101551.66;21092312;28;19931;-61
2023/08/04 18:16:38;;;;;;;;;;;;;;;19.34;82.71;101558.84;21083721;28;20018;-61
2023/08/04 18:27:00;;;;;;;;;;;;;;;19.19;80.34;101573.63;21086792;28;20400;-61
2023/08/04 18:37:22;;;;;;;;;;;;;;;19.14;82.10;101574.78;21089956;28;19932;-61
2023/08/04 18:47:43;;;;;;;;;;;;;;;19.03;83.74;101586.69;21099164;28;19924;-61
2023/08/04 18:58:05;;;;;;;;;;;;;;;18.96;82.75;101603.69;21076424;27;19931;-61
2023/08/04 19:08:26;;;;;;;;;;;;;;;18.84;83.77;101614.78;21099580;27;19923;-61
2023/08/04 19:18:47;;;;;;;;;;;;;;;18.69;84.52;101628.72;21103649;27;20372;-61
2023/08/04 19:29:09;;;;;;;;;;;;;;;18.64;83.74;101638.56;21105795;27;19927;-61
2023/08/04 19:39:31;;;;;;;;;;;;;;;18.54;84.88;101647.84;21062794;27;20027;-61
2023/08/04 19:49:52;;;;;;;;;;;;;;;18.35;87.29;101657.47;21075724;27;20633;-61
2023/08/04 20:00:14;;;;;;;;;;;;;;;18.25;86.47;101666.72;21069939;27;19955;-61
2023/08/04 20:10:35;;;;;;;;;;;;;;;18.25;85.66;101671.13;21069572;27;20295;-61
2023/08/04 20:20:57;;;;;;;;;;;;;;;18.10;85.15;101677.94;21059514;27;20316;-61
2023/08/04 20:31:19;;;;;;;;;;;;;;;18.15;87.85;101681.19;21085503;27;19932;-61
2023/08/04 20:41:40;;;;;;;;;;;;;;;18.13;86.64;101676.94;21076772;27;19923;-61
2023/08/04 20:52:02;;;;;;;;;;;;;;;18.04;85.56;101686.06;21083728;27;19927;-61
2023/08/04 21:02:23;;;;;;;;;;;;;;;18.09;85.76;101694.59;21101267;27;19924;-61
2023/08/04 21:12:45;;;;;;;;;;;;;;;18.02;85.45;101699.25;21078353;27;19967;-61
2023/08/04 21:23:06;;;;;;;;;;;;;;;18.00;85.96;101692.41;21089603;27;19973;-61
2023/08/04 21:33:28;;;;;;;;;;;;;;;17.92;85.69;101697.13;21068675;27;20452;-61
2023/08/04 21:43:49;;;;;;;;;;;;;;;17.84;86.81;101696.63;21083378;27;19924;-62
2023/08/04 21:54:11;;;;;;;;;;;;;;;17.71;87.16;101698.09;21080340;28;19977;-61
2023/08/04 22:04:33;;;;;;;;;;;;;;;17.47;87.75;101702.69;21086251;28;19931;-61
2023/08/04 22:14:55;;;;;;;;;;;;;;;17.46;87.81;101718.44;21088165;28;20004;-61
2023/08/04 22:25:17;;;;;;;;;;;;;;;17.43;87.54;101716.81;21105910;27;19935;-61
2023/08/04 22:35:39;;;;;;;;;;;;;;;17.23;87.06;101716.84;21101561;27;19923;-61
2023/08/04 22:46:01;;;;;;;;;;;;;;;17.05;87.13;101715.84;21090336;27;20437;-61
2023/08/04 22:56:23;;;;;;;;;;;;;;;16.85;86.97;101723.66;21091533;28;19935;-61
2023/08/04 23:06:44;;;;;;;;;;;;;;;16.72;86.96;101714.63;21093294;27;19940;-61
2023/08/04 23:17:06;;;;;;;;;;;;;;;16.67;87.42;101716.59;21096544;27;19924;-61
2023/08/04 23:27:27;;;;;;;;;;;;;;;16.60;87.40;101711.66;21079754;27;20534;-61
2023/08/04 23:37:49;;;;;;;;;;;;;;;16.44;87.49;101719.25;21077891;27;19924;-61
2023/08/04 23:48:10;;;;;;;;;;;;;;;16.34;89.51;101704.84;21085867;28;19928;-61
2023/08/04 23:58:32;;;;;;;;;;;;;;;16.17;88.88;101691.59;21091237;27;19927;-61
